sensor_id;sensor_type;location;lat;lon;timestamp;P1;durP1;ratioP1;P2;durP2;ratioP2
70026;SDS011;57506;50.092;15.804;2023-02-28T00:00:19;14.10;;;5.75;;
70026;SDS011;57506;50.092;15.804;2023-02-28T00:02:46;14.68;;;6.10;;
70026;SDS011;57506;50.092;15.804;2023-02-28T00:05:13;15.93;;;5.72;;
70026;SDS011;57506;50.092;15.804;2023-02-28T00:07:41;13.27;;;5.70;;
70026;SDS011;57506;50.092;15.804;2023-02-28T00:10:08;14.73;;;5.13;;
70026;SDS011;57506;50.092;15.804;2023-02-28T00:12:36;13.60;;;5.30;;
70026;SDS011;57506;50.092;15.804;2023-02-28T00:15:04;13.55;;;5.28;;
70026;SDS011;57506;50.092;15.804;2023-02-28T00:17:31;13.43;;;5.18;;
70026;SDS011;57506;50.092;15.804;2023-02-28T00:19:57;13.70;;;4.60;;
70026;SDS011;57506;50.092;15.804;2023-02-28T00:22:26;12.50;;;4.80;;
70026;SDS011;57506;50.092;15.804;2023-02-28T00:24:52;10.87;;;4.60;;
70026;SDS011;57506;50.092;15.804;2023-02-28T00:27:17;12.40;;;4.50;;
70026;SDS011;57506;50.092;15.804;2023-02-28T00:29:43;11.73;;;4.03;;
70026;SDS011;57506;50.092;15.804;2023-02-28T00:32:08;12.17;;;4.47;;
70026;SDS011;57506;50.092;15.804;2023-02-28T00:34:34;12.23;;;4.67;;
70026;SDS011;57506;50.092;15.804;2023-02-28T00:37:05;14.85;;;4.55;;
70026;SDS011;57506;50.092;15.804;2023-02-28T00:39:36;11.27;;;3.97;;
70026;SDS011;57506;50.092;15.804;2023-02-28T00:42:04;11.30;;;4.70;;
70026;SDS011;57506;50.092;15.804;2023-02-28T00:44:30;13.73;;;4.33;;
70026;SDS011;57506;50.092;15.804;2023-02-28T00:46:56;14.32;;;4.55;;
70026;SDS011;57506;50.092;15.804;2023-02-28T00:49:22;12.63;;;5.28;;
70026;SDS011;57506;50.092;15.804;2023-02-28T00:51:49;13.32;;;4.90;;
70026;SDS011;57506;50.092;15.804;2023-02-28T00:54:15;16.03;;;5.20;;
70026;SDS011;57506;50.092;15.804;2023-02-28T00:56:41;12.32;;;4.85;;
70026;SDS011;57506;50.092;15.804;2023-02-28T00:59:06;13.45;;;4.70;;
70026;SDS011;57506;50.092;15.804;2023-02-28T01:01:32;9.63;;;4.30;;
70026;SDS011;57506;50.092;15.804;2023-02-28T01:03:57;16.92;;;4.90;;
70026;SDS011;57506;50.092;15.804;2023-02-28T01:06:23;10.23;;;4.50;;
70026;SDS011;57506;50.092;15.804;2023-02-28T01:08:49;13.50;;;4.80;;
70026;SDS011;57506;50.092;15.804;2023-02-28T01:11:16;13.38;;;4.72;;
70026;SDS011;57506;50.092;15.804;2023-02-28T01:13:43;13.88;;;5.25;;
70026;SDS011;57506;50.092;15.804;2023-02-28T01:16:09;13.20;;;5.60;;
70026;SDS011;57506;50.092;15.804;2023-02-28T01:18:35;13.10;;;5.00;;
70026;SDS011;57506;50.092;15.804;2023-02-28T01:21:05;13.20;;;5.50;;
70026;SDS011;57506;50.092;15.804;2023-02-28T01:23:33;14.43;;;4.77;;
70026;SDS011;57506;50.092;15.804;2023-02-28T01:26:03;14.52;;;5.00;;
70026;SDS011;57506;50.092;15.804;2023-02-28T01:28:33;12.55;;;5.20;;
70026;SDS011;57506;50.092;15.804;2023-02-28T01:30:59;13.20;;;5.45;;
70026;SDS011;57506;50.092;15.804;2023-02-28T01:33:25;15.98;;;5.93;;
70026;SDS011;57506;50.092;15.804;2023-02-28T01:35:57;13.00;;;5.87;;
70026;SDS011;57506;50.092;15.804;2023-02-28T01:38:23;13.90;;;5.10;;
70026;SDS011;57506;50.092;15.804;2023-02-28T01:40:49;13.07;;;5.00;;
70026;SDS011;57506;50.092;15.804;2023-02-28T01:45:57;12.50;;;5.40;;
70026;SDS011;57506;50.092;15.804;2023-02-28T01:48:27;14.23;;;5.50;;
70026;SDS011;57506;50.092;15.804;2023-02-28T01:50:58;13.20;;;5.07;;
70026;SDS011;57506;50.092;15.804;2023-02-28T01:53:29;11.00;;;4.93;;
70026;SDS011;57506;50.092;15.804;2023-02-28T01:55:59;16.10;;;5.57;;
70026;SDS011;57506;50.092;15.804;2023-02-28T01:58:28;12.88;;;4.90;;
70026;SDS011;57506;50.092;15.804;2023-02-28T02:00:53;13.48;;;5.43;;
70026;SDS011;57506;50.092;15.804;2023-02-28T02:03:19;13.27;;;5.87;;
70026;SDS011;57506;50.092;15.804;2023-02-28T02:05:45;13.77;;;5.13;;
70026;SDS011;57506;50.092;15.804;2023-02-28T02:08:20;12.07;;;5.27;;
70026;SDS011;57506;50.092;15.804;2023-02-28T02:10:57;12.93;;;5.90;;
70026;SDS011;57506;50.092;15.804;2023-02-28T02:13:29;17.30;;;6.03;;
70026;SDS011;57506;50.092;15.804;2023-02-28T02:18:57;13.55;;;5.25;;
70026;SDS011;57506;50.092;15.804;2023-02-28T02:24:38;13.90;;;5.22;;
70026;SDS011;57506;50.092;15.804;2023-02-28T02:40:35;14.38;;;6.25;;
70026;SDS011;57506;50.092;15.804;2023-02-28T02:43:21;20.95;;;8.38;;
70026;SDS011;57506;50.092;15.804;2023-02-28T02:46:02;14.30;;;5.97;;
70026;SDS011;57506;50.092;15.804;2023-02-28T02:48:34;16.02;;;5.72;;
70026;SDS011;57506;50.092;15.804;2023-02-28T02:51:05;18.80;;;6.15;;
70026;SDS011;57506;50.092;15.804;2023-02-28T02:53:38;15.23;;;6.40;;
70026;SDS011;57506;50.092;15.804;2023-02-28T02:56:14;15.82;;;6.00;;
70026;SDS011;57506;50.092;15.804;2023-02-28T02:58:43;17.00;;;6.15;;
70026;SDS011;57506;50.092;15.804;2023-02-28T03:01:12;17.17;;;6.40;;
70026;SDS011;57506;50.092;15.804;2023-02-28T03:03:42;14.45;;;6.07;;
70026;SDS011;57506;50.092;15.804;2023-02-28T03:06:09;12.20;;;5.60;;
70026;SDS011;57506;50.092;15.804;2023-02-28T03:08:36;14.55;;;5.72;;
70026;SDS011;57506;50.092;15.804;2023-02-28T03:11:04;18.98;;;7.03;;
70026;SDS011;57506;50.092;15.804;2023-02-28T03:27:24;17.25;;;6.57;;
70026;SDS011;57506;50.092;15.804;2023-02-28T03:30:27;20.63;;;7.18;;
70026;SDS011;57506;50.092;15.804;2023-02-28T03:33:22;15.83;;;6.17;;
70026;SDS011;57506;50.092;15.804;2023-02-28T03:36:06;21.98;;;6.32;;
70026;SDS011;57506;50.092;15.804;2023-02-28T03:41:07;15.95;;;7.03;;
70026;SDS011;57506;50.092;15.804;2023-02-28T03:43:39;15.43;;;6.85;;
70026;SDS011;57506;50.092;15.804;2023-02-28T03:46:09;16.23;;;7.13;;
70026;SDS011;57506;50.092;15.804;2023-02-28T03:48:48;15.95;;;6.80;;
70026;SDS011;57506;50.092;15.804;2023-02-28T03:51:19;16.02;;;6.82;;
70026;SDS011;57506;50.092;15.804;2023-02-28T03:53:52;18.90;;;7.55;;
70026;SDS011;57506;50.092;15.804;2023-02-28T03:56:24;18.05;;;7.75;;
70026;SDS011;57506;50.092;15.804;2023-02-28T04:01:35;16.98;;;7.13;;
70026;SDS011;57506;50.092;15.804;2023-02-28T04:04:01;19.05;;;7.78;;
70026;SDS011;57506;50.092;15.804;2023-02-28T04:06:27;23.17;;;7.95;;
70026;SDS011;57506;50.092;15.804;2023-02-28T04:08:57;21.02;;;7.88;;
70026;SDS011;57506;50.092;15.804;2023-02-28T04:14:20;17.63;;;7.43;;
70026;SDS011;57506;50.092;15.804;2023-02-28T04:16:46;21.63;;;7.72;;
70026;SDS011;57506;50.092;15.804;2023-02-28T04:19:12;17.07;;;7.70;;
70026;SDS011;57506;50.092;15.804;2023-02-28T04:24:07;22.20;;;7.82;;
70026;SDS011;57506;50.092;15.804;2023-02-28T04:26:35;20.47;;;7.53;;
70026;SDS011;57506;50.092;15.804;2023-02-28T04:29:02;18.70;;;8.18;;
70026;SDS011;57506;50.092;15.804;2023-02-28T04:31:29;18.90;;;7.55;;
70026;SDS011;57506;50.092;15.804;2023-02-28T04:33:55;20.83;;;7.40;;
70026;SDS011;57506;50.092;15.804;2023-02-28T04:36:20;25.48;;;7.65;;
70026;SDS011;57506;50.092;15.804;2023-02-28T04:38:47;18.63;;;7.37;;
70026;SDS011;57506;50.092;15.804;2023-02-28T04:41:13;21.33;;;7.60;;
70026;SDS011;57506;50.092;15.804;2023-02-28T04:43:39;22.73;;;7.50;;
70026;SDS011;57506;50.092;15.804;2023-02-28T04:46:05;20.73;;;7.63;;
70026;SDS011;57506;50.092;15.804;2023-02-28T04:48:32;18.98;;;8.02;;
70026;SDS011;57506;50.092;15.804;2023-02-28T04:51:00;28.13;;;8.40;;
70026;SDS011;57506;50.092;15.804;2023-02-28T04:53:27;23.07;;;8.40;;
70026;SDS011;57506;50.092;15.804;2023-02-28T04:55:54;21.58;;;7.30;;
70026;SDS011;57506;50.092;15.804;2023-02-28T04:58:20;21.67;;;7.97;;
70026;SDS011;57506;50.092;15.804;2023-02-28T05:00:48;21.55;;;7.72;;
70026;SDS011;57506;50.092;15.804;2023-02-28T05:03:13;21.83;;;8.40;;
70026;SDS011;57506;50.092;15.804;2023-02-28T05:05:39;20.65;;;8.43;;
70026;SDS011;57506;50.092;15.804;2023-02-28T05:08:04;19.95;;;7.65;;
70026;SDS011;57506;50.092;15.804;2023-02-28T05:10:30;22.30;;;8.07;;
70026;SDS011;57506;50.092;15.804;2023-02-28T05:12:56;22.02;;;8.30;;
70026;SDS011;57506;50.092;15.804;2023-02-28T05:15:21;21.27;;;7.90;;
70026;SDS011;57506;50.092;15.804;2023-02-28T05:17:47;23.07;;;7.73;;
70026;SDS011;57506;50.092;15.804;2023-02-28T05:20:12;20.63;;;8.30;;
70026;SDS011;57506;50.092;15.804;2023-02-28T05:22:41;21.50;;;8.07;;
70026;SDS011;57506;50.092;15.804;2023-02-28T05:25:09;21.38;;;8.82;;
70026;SDS011;57506;50.092;15.804;2023-02-28T05:27:37;21.50;;;8.30;;
70026;SDS011;57506;50.092;15.804;2023-02-28T05:30:03;19.23;;;7.33;;
70026;SDS011;57506;50.092;15.804;2023-02-28T05:32:29;16.60;;;7.70;;
70026;SDS011;57506;50.092;15.804;2023-02-28T05:34:55;19.13;;;7.88;;
70026;SDS011;57506;50.092;15.804;2023-02-28T05:37:20;20.17;;;7.60;;
70026;SDS011;57506;50.092;15.804;2023-02-28T05:39:46;17.93;;;7.73;;
70026;SDS011;57506;50.092;15.804;2023-02-28T05:42:11;22.60;;;7.95;;
70026;SDS011;57506;50.092;15.804;2023-02-28T05:44:36;16.42;;;7.13;;
70026;SDS011;57506;50.092;15.804;2023-02-28T05:47:02;18.67;;;7.77;;
70026;SDS011;57506;50.092;15.804;2023-02-28T05:49:28;23.77;;;9.43;;
70026;SDS011;57506;50.092;15.804;2023-02-28T05:51:53;22.45;;;8.98;;
70026;SDS011;57506;50.092;15.804;2023-02-28T05:54:19;21.17;;;8.60;;
70026;SDS011;57506;50.092;15.804;2023-02-28T05:56:44;22.88;;;8.25;;
70026;SDS011;57506;50.092;15.804;2023-02-28T05:59:11;26.07;;;11.10;;
70026;SDS011;57506;50.092;15.804;2023-02-28T06:01:41;28.05;;;11.23;;
70026;SDS011;57506;50.092;15.804;2023-02-28T06:04:13;26.25;;;9.68;;
70026;SDS011;57506;50.092;15.804;2023-02-28T06:06:43;22.55;;;8.80;;
70026;SDS011;57506;50.092;15.804;2023-02-28T06:09:09;25.50;;;8.73;;
70026;SDS011;57506;50.092;15.804;2023-02-28T06:11:35;20.13;;;9.23;;
70026;SDS011;57506;50.092;15.804;2023-02-28T06:14:01;20.10;;;8.27;;
70026;SDS011;57506;50.092;15.804;2023-02-28T06:16:27;22.63;;;8.63;;
70026;SDS011;57506;50.092;15.804;2023-02-28T06:18:54;25.00;;;9.48;;
70026;SDS011;57506;50.092;15.804;2023-02-28T06:21:21;21.17;;;9.35;;
70026;SDS011;57506;50.092;15.804;2023-02-28T06:23:47;24.98;;;9.45;;
70026;SDS011;57506;50.092;15.804;2023-02-28T06:26:13;21.90;;;8.97;;
70026;SDS011;57506;50.092;15.804;2023-02-28T06:28:39;21.73;;;9.57;;
70026;SDS011;57506;50.092;15.804;2023-02-28T06:31:06;23.67;;;9.07;;
70026;SDS011;57506;50.092;15.804;2023-02-28T06:33:33;20.05;;;9.35;;
70026;SDS011;57506;50.092;15.804;2023-02-28T06:35:58;24.52;;;9.00;;
70026;SDS011;57506;50.092;15.804;2023-02-28T06:38:24;24.07;;;8.50;;
70026;SDS011;57506;50.092;15.804;2023-02-28T06:40:56;25.33;;;9.30;;
70026;SDS011;57506;50.092;15.804;2023-02-28T06:43:24;23.58;;;9.02;;
70026;SDS011;57506;50.092;15.804;2023-02-28T06:45:53;21.75;;;9.05;;
70026;SDS011;57506;50.092;15.804;2023-02-28T06:48:19;21.38;;;9.13;;
70026;SDS011;57506;50.092;15.804;2023-02-28T06:50:45;21.93;;;9.07;;
70026;SDS011;57506;50.092;15.804;2023-02-28T06:53:11;24.00;;;9.13;;
70026;SDS011;57506;50.092;15.804;2023-02-28T06:55:37;23.73;;;10.83;;
70026;SDS011;57506;50.092;15.804;2023-02-28T06:58:04;25.98;;;10.57;;
70026;SDS011;57506;50.092;15.804;2023-02-28T07:00:39;27.42;;;10.93;;
70026;SDS011;57506;50.092;15.804;2023-02-28T07:03:09;28.30;;;11.32;;
70026;SDS011;57506;50.092;15.804;2023-02-28T07:05:35;26.90;;;11.50;;
70026;SDS011;57506;50.092;15.804;2023-02-28T07:08:02;28.00;;;11.80;;
70026;SDS011;57506;50.092;15.804;2023-02-28T07:10:29;27.48;;;11.07;;
70026;SDS011;57506;50.092;15.804;2023-02-28T07:12:55;25.08;;;10.48;;
70026;SDS011;57506;50.092;15.804;2023-02-28T07:15:20;27.70;;;11.30;;
70026;SDS011;57506;50.092;15.804;2023-02-28T07:17:46;24.97;;;10.83;;
70026;SDS011;57506;50.092;15.804;2023-02-28T07:20:11;25.15;;;11.63;;
70026;SDS011;57506;50.092;15.804;2023-02-28T07:22:37;28.13;;;11.03;;
70026;SDS011;57506;50.092;15.804;2023-02-28T07:25:04;24.17;;;11.07;;
70026;SDS011;57506;50.092;15.804;2023-02-28T07:27:30;31.58;;;12.60;;
70026;SDS011;57506;50.092;15.804;2023-02-28T07:29:56;29.53;;;12.07;;
70026;SDS011;57506;50.092;15.804;2023-02-28T07:32:21;24.70;;;11.15;;
70026;SDS011;57506;50.092;15.804;2023-02-28T07:34:47;25.77;;;11.55;;
70026;SDS011;57506;50.092;15.804;2023-02-28T07:37:13;26.87;;;11.87;;
70026;SDS011;57506;50.092;15.804;2023-02-28T07:39:39;27.13;;;11.13;;
70026;SDS011;57506;50.092;15.804;2023-02-28T07:42:07;25.98;;;11.10;;
70026;SDS011;57506;50.092;15.804;2023-02-28T07:44:36;25.45;;;11.10;;
70026;SDS011;57506;50.092;15.804;2023-02-28T07:47:06;27.40;;;11.43;;
70026;SDS011;57506;50.092;15.804;2023-02-28T07:49:33;23.08;;;10.25;;
70026;SDS011;57506;50.092;15.804;2023-02-28T07:51:59;27.88;;;10.07;;
70026;SDS011;57506;50.092;15.804;2023-02-28T07:54:24;26.00;;;10.40;;
70026;SDS011;57506;50.092;15.804;2023-02-28T07:56:50;21.17;;;9.95;;
70026;SDS011;57506;50.092;15.804;2023-02-28T07:59:15;23.45;;;10.00;;
70026;SDS011;57506;50.092;15.804;2023-02-28T08:01:41;25.27;;;10.77;;
70026;SDS011;57506;50.092;15.804;2023-02-28T08:04:08;23.38;;;10.13;;
70026;SDS011;57506;50.092;15.804;2023-02-28T08:06:34;21.23;;;10.10;;
70026;SDS011;57506;50.092;15.804;2023-02-28T08:09:00;20.45;;;9.60;;
70026;SDS011;57506;50.092;15.804;2023-02-28T08:11:25;25.93;;;9.80;;
70026;SDS011;57506;50.092;15.804;2023-02-28T08:13:51;24.10;;;9.90;;
70026;SDS011;57506;50.092;15.804;2023-02-28T08:16:17;20.38;;;9.20;;
70026;SDS011;57506;50.092;15.804;2023-02-28T08:18:47;26.45;;;10.07;;
70026;SDS011;57506;50.092;15.804;2023-02-28T08:21:17;21.40;;;9.85;;
70026;SDS011;57506;50.092;15.804;2023-02-28T08:23:47;23.80;;;9.37;;
70026;SDS011;57506;50.092;15.804;2023-02-28T08:26:14;24.05;;;9.50;;
70026;SDS011;57506;50.092;15.804;2023-02-28T08:28:43;19.23;;;8.63;;
70026;SDS011;57506;50.092;15.804;2023-02-28T08:31:10;18.15;;;8.15;;
70026;SDS011;57506;50.092;15.804;2023-02-28T08:33:37;20.17;;;9.00;;
70026;SDS011;57506;50.092;15.804;2023-02-28T08:36:04;22.57;;;8.97;;
70026;SDS011;57506;50.092;15.804;2023-02-28T08:38:30;18.30;;;8.25;;
70026;SDS011;57506;50.092;15.804;2023-02-28T08:40:57;18.70;;;8.48;;
70026;SDS011;57506;50.092;15.804;2023-02-28T08:43:24;17.50;;;8.57;;
70026;SDS011;57506;50.092;15.804;2023-02-28T08:45:52;17.37;;;8.00;;
70026;SDS011;57506;50.092;15.804;2023-02-28T08:48:18;20.42;;;8.50;;
70026;SDS011;57506;50.092;15.804;2023-02-28T08:50:44;18.20;;;8.53;;
70026;SDS011;57506;50.092;15.804;2023-02-28T08:53:19;18.17;;;8.00;;
70026;SDS011;57506;50.092;15.804;2023-02-28T08:55:45;21.08;;;8.77;;
70026;SDS011;57506;50.092;15.804;2023-02-28T08:58:11;19.63;;;8.10;;
70026;SDS011;57506;50.092;15.804;2023-02-28T09:00:36;18.20;;;8.70;;
70026;SDS011;57506;50.092;15.804;2023-02-28T09:03:02;17.20;;;8.70;;
70026;SDS011;57506;50.092;15.804;2023-02-28T09:05:28;18.02;;;8.35;;
70026;SDS011;57506;50.092;15.804;2023-02-28T09:07:54;18.83;;;8.05;;
70026;SDS011;57506;50.092;15.804;2023-02-28T09:10:20;26.30;;;8.18;;
70026;SDS011;57506;50.092;15.804;2023-02-28T09:12:45;19.10;;;7.97;;
70026;SDS011;57506;50.092;15.804;2023-02-28T09:15:12;17.58;;;7.93;;
70026;SDS011;57506;50.092;15.804;2023-02-28T09:17:38;15.60;;;7.72;;
70026;SDS011;57506;50.092;15.804;2023-02-28T09:20:04;19.87;;;7.00;;
70026;SDS011;57506;50.092;15.804;2023-02-28T09:22:30;19.20;;;7.95;;
70026;SDS011;57506;50.092;15.804;2023-02-28T09:24:55;16.20;;;6.97;;
70026;SDS011;57506;50.092;15.804;2023-02-28T09:27:21;13.73;;;7.43;;
70026;SDS011;57506;50.092;15.804;2023-02-28T09:29:46;13.67;;;7.07;;
70026;SDS011;57506;50.092;15.804;2023-02-28T09:32:12;13.83;;;6.57;;
70026;SDS011;57506;50.092;15.804;2023-02-28T09:34:38;15.65;;;7.07;;
70026;SDS011;57506;50.092;15.804;2023-02-28T09:37:03;15.13;;;6.73;;
70026;SDS011;57506;50.092;15.804;2023-02-28T09:39:29;21.15;;;7.55;;
70026;SDS011;57506;50.092;15.804;2023-02-28T09:41:56;16.40;;;7.00;;
70026;SDS011;57506;50.092;15.804;2023-02-28T09:47:01;14.10;;;6.63;;
70026;SDS011;57506;50.092;15.804;2023-02-28T09:49:50;15.73;;;6.53;;
70026;SDS011;57506;50.092;15.804;2023-02-28T09:52:20;14.20;;;6.63;;
70026;SDS011;57506;50.092;15.804;2023-02-28T09:54:50;15.70;;;7.53;;
70026;SDS011;57506;50.092;15.804;2023-02-28T10:02:48;13.87;;;6.27;;
70026;SDS011;57506;50.092;15.804;2023-02-28T10:05:36;16.02;;;7.03;;
70026;SDS011;57506;50.092;15.804;2023-02-28T10:10:45;14.40;;;7.15;;
70026;SDS011;57506;50.092;15.804;2023-02-28T10:15:58;16.20;;;7.13;;
70026;SDS011;57506;50.092;15.804;2023-02-28T10:21:33;19.00;;;7.93;;
70026;SDS011;57506;50.092;15.804;2023-02-28T10:24:02;19.65;;;7.25;;
70026;SDS011;57506;50.092;15.804;2023-02-28T10:26:36;14.45;;;7.25;;
70026;SDS011;57506;50.092;15.804;2023-02-28T10:29:01;18.17;;;7.37;;
70026;SDS011;57506;50.092;15.804;2023-02-28T10:31:28;16.95;;;7.00;;
70026;SDS011;57506;50.092;15.804;2023-02-28T10:33:54;17.13;;;7.30;;
70026;SDS011;57506;50.092;15.804;2023-02-28T10:36:20;17.37;;;7.23;;
70026;SDS011;57506;50.092;15.804;2023-02-28T10:38:47;22.63;;;7.35;;
70026;SDS011;57506;50.092;15.804;2023-02-28T10:41:14;15.93;;;7.20;;
70026;SDS011;57506;50.092;15.804;2023-02-28T10:44:14;15.40;;;7.00;;
70026;SDS011;57506;50.092;15.804;2023-02-28T10:46:47;14.43;;;7.25;;
70026;SDS011;57506;50.092;15.804;2023-02-28T10:49:20;14.70;;;7.10;;
70026;SDS011;57506;50.092;15.804;2023-02-28T10:51:48;16.77;;;7.45;;
70026;SDS011;57506;50.092;15.804;2023-02-28T10:54:27;14.95;;;6.80;;
70026;SDS011;57506;50.092;15.804;2023-02-28T11:00:08;15.35;;;6.60;;
70026;SDS011;57506;50.092;15.804;2023-02-28T11:02:50;14.43;;;6.77;;
70026;SDS011;57506;50.092;15.804;2023-02-28T11:07:55;14.18;;;6.38;;
70026;SDS011;57506;50.092;15.804;2023-02-28T11:10:25;14.85;;;7.00;;
70026;SDS011;57506;50.092;15.804;2023-02-28T11:12:55;17.23;;;7.82;;
70026;SDS011;57506;50.092;15.804;2023-02-28T11:15:32;16.93;;;7.40;;
70026;SDS011;57506;50.092;15.804;2023-02-28T11:21:05;15.30;;;7.00;;
70026;SDS011;57506;50.092;15.804;2023-02-28T11:23:33;15.25;;;6.85;;
70026;SDS011;57506;50.092;15.804;2023-02-28T11:26:02;15.70;;;6.90;;
70026;SDS011;57506;50.092;15.804;2023-02-28T11:28:37;14.67;;;7.40;;
70026;SDS011;57506;50.092;15.804;2023-02-28T11:33:31;14.70;;;6.57;;
70026;SDS011;57506;50.092;15.804;2023-02-28T11:36:13;14.65;;;7.03;;
70026;SDS011;57506;50.092;15.804;2023-02-28T11:38:50;18.05;;;7.32;;
70026;SDS011;57506;50.092;15.804;2023-02-28T11:44:05;13.98;;;6.70;;
70026;SDS011;57506;50.092;15.804;2023-02-28T11:46:51;14.17;;;6.60;;
70026;SDS011;57506;50.092;15.804;2023-02-28T11:49:35;16.15;;;7.20;;
70026;SDS011;57506;50.092;15.804;2023-02-28T11:54:46;16.75;;;7.00;;
70026;SDS011;57506;50.092;15.804;2023-02-28T12:03:02;12.15;;;6.22;;
70026;SDS011;57506;50.092;15.804;2023-02-28T12:05:46;15.60;;;6.03;;
70026;SDS011;57506;50.092;15.804;2023-02-28T12:16:36;13.68;;;6.32;;
70026;SDS011;57506;50.092;15.804;2023-02-28T12:21:48;14.18;;;5.90;;
70026;SDS011;57506;50.092;15.804;2023-02-28T12:27:10;15.23;;;6.73;;
70026;SDS011;57506;50.092;15.804;2023-02-28T12:29:49;14.15;;;6.40;;
70026;SDS011;57506;50.092;15.804;2023-02-28T12:32:42;13.45;;;6.60;;
70026;SDS011;57506;50.092;15.804;2023-02-28T12:35:14;14.10;;;6.25;;
70026;SDS011;57506;50.092;15.804;2023-02-28T12:37:57;15.38;;;6.18;;
70026;SDS011;57506;50.092;15.804;2023-02-28T12:40:33;13.10;;;6.20;;
70026;SDS011;57506;50.092;15.804;2023-02-28T12:43:12;12.77;;;6.45;;
70026;SDS011;57506;50.092;15.804;2023-02-28T12:45:45;14.15;;;7.10;;
70026;SDS011;57506;50.092;15.804;2023-02-28T12:48:15;16.63;;;6.97;;
70026;SDS011;57506;50.092;15.804;2023-02-28T12:50:47;14.50;;;6.20;;
70026;SDS011;57506;50.092;15.804;2023-02-28T13:05:01;15.57;;;7.22;;
70026;SDS011;57506;50.092;15.804;2023-02-28T13:10:46;15.52;;;6.85;;
70026;SDS011;57506;50.092;15.804;2023-02-28T13:13:20;15.50;;;6.95;;
70026;SDS011;57506;50.092;15.804;2023-02-28T13:15:58;18.05;;;7.30;;
70026;SDS011;57506;50.092;15.804;2023-02-28T13:18:38;15.80;;;7.10;;
70026;SDS011;57506;50.092;15.804;2023-02-28T13:21:09;15.43;;;6.73;;
70026;SDS011;57506;50.092;15.804;2023-02-28T13:24:02;16.25;;;7.32;;
70026;SDS011;57506;50.092;15.804;2023-02-28T13:39:51;10.87;;;5.63;;
70026;SDS011;57506;50.092;15.804;2023-02-28T13:43:03;12.30;;;6.00;;
70026;SDS011;57506;50.092;15.804;2023-02-28T14:06:56;12.27;;;5.40;;
70026;SDS011;57506;50.092;15.804;2023-02-28T14:09:28;13.23;;;5.73;;
70026;SDS011;57506;50.092;15.804;2023-02-28T14:12:18;10.82;;;5.32;;
70026;SDS011;57506;50.092;15.804;2023-02-28T14:15:01;9.57;;;5.10;;
70026;SDS011;57506;50.092;15.804;2023-02-28T14:17:28;10.48;;;4.78;;
70026;SDS011;57506;50.092;15.804;2023-02-28T14:19:54;11.17;;;5.33;;
70026;SDS011;57506;50.092;15.804;2023-02-28T14:25:22;11.98;;;5.45;;
70026;SDS011;57506;50.092;15.804;2023-02-28T14:28:11;16.23;;;7.35;;
70026;SDS011;57506;50.092;15.804;2023-02-28T14:38:53;9.95;;;5.13;;
70026;SDS011;57506;50.092;15.804;2023-02-28T14:43:56;11.63;;;5.53;;
70026;SDS011;57506;50.092;15.804;2023-02-28T14:46:57;18.07;;;6.20;;
70026;SDS011;57506;50.092;15.804;2023-02-28T14:49:29;11.07;;;5.05;;
70026;SDS011;57506;50.092;15.804;2023-02-28T14:54:46;12.05;;;5.35;;
70026;SDS011;57506;50.092;15.804;2023-02-28T14:57:29;13.73;;;5.50;;
70026;SDS011;57506;50.092;15.804;2023-02-28T15:00:11;11.50;;;5.00;;
70026;SDS011;57506;50.092;15.804;2023-02-28T15:02:38;13.45;;;5.55;;
70026;SDS011;57506;50.092;15.804;2023-02-28T15:07:42;13.13;;;6.43;;
70026;SDS011;57506;50.092;15.804;2023-02-28T15:15:27;13.32;;;6.32;;
70026;SDS011;57506;50.092;15.804;2023-02-28T15:18:21;12.98;;;5.80;;
70026;SDS011;57506;50.092;15.804;2023-02-28T15:20:47;18.42;;;7.47;;
70026;SDS011;57506;50.092;15.804;2023-02-28T15:23:14;19.25;;;8.80;;
70026;SDS011;57506;50.092;15.804;2023-02-28T15:25:40;15.37;;;6.93;;
70026;SDS011;57506;50.092;15.804;2023-02-28T15:28:10;23.23;;;9.18;;
70026;SDS011;57506;50.092;15.804;2023-02-28T15:30:39;12.52;;;5.88;;
70026;SDS011;57506;50.092;15.804;2023-02-28T15:33:20;13.95;;;6.38;;
70026;SDS011;57506;50.092;15.804;2023-02-28T15:35:47;13.57;;;6.45;;
70026;SDS011;57506;50.092;15.804;2023-02-28T15:38:24;16.30;;;7.00;;
70026;SDS011;57506;50.092;15.804;2023-02-28T15:43:26;17.45;;;7.55;;
70026;SDS011;57506;50.092;15.804;2023-02-28T15:48:37;17.33;;;7.95;;
70026;SDS011;57506;50.092;15.804;2023-02-28T15:51:09;14.77;;;6.17;;
70026;SDS011;57506;50.092;15.804;2023-02-28T15:56:22;15.10;;;6.47;;
70026;SDS011;57506;50.092;15.804;2023-02-28T15:59:13;15.95;;;6.78;;
70026;SDS011;57506;50.092;15.804;2023-02-28T16:01:41;22.73;;;11.45;;
70026;SDS011;57506;50.092;15.804;2023-02-28T16:04:19;16.63;;;9.43;;
70026;SDS011;57506;50.092;15.804;2023-02-28T16:06:46;26.48;;;14.13;;
70026;SDS011;57506;50.092;15.804;2023-02-28T16:09:25;15.07;;;7.65;;
70026;SDS011;57506;50.092;15.804;2023-02-28T16:11:52;19.20;;;10.17;;
70026;SDS011;57506;50.092;15.804;2023-02-28T16:14:21;23.92;;;11.88;;
70026;SDS011;57506;50.092;15.804;2023-02-28T16:16:52;13.05;;;6.20;;
70026;SDS011;57506;50.092;15.804;2023-02-28T16:19:23;16.23;;;6.80;;
70026;SDS011;57506;50.092;15.804;2023-02-28T16:21:48;16.40;;;7.20;;
70026;SDS011;57506;50.092;15.804;2023-02-28T16:24:14;19.60;;;10.60;;
70026;SDS011;57506;50.092;15.804;2023-02-28T16:26:40;26.92;;;13.02;;
70026;SDS011;57506;50.092;15.804;2023-02-28T16:29:12;25.67;;;12.67;;
70026;SDS011;57506;50.092;15.804;2023-02-28T16:31:42;26.45;;;12.18;;
70026;SDS011;57506;50.092;15.804;2023-02-28T16:34:07;16.77;;;7.13;;
70026;SDS011;57506;50.092;15.804;2023-02-28T16:36:33;15.85;;;7.65;;
70026;SDS011;57506;50.092;15.804;2023-02-28T16:38:59;12.43;;;6.57;;
70026;SDS011;57506;50.092;15.804;2023-02-28T16:41:25;19.38;;;8.38;;
70026;SDS011;57506;50.092;15.804;2023-02-28T16:43:53;18.42;;;8.55;;
70026;SDS011;57506;50.092;15.804;2023-02-28T16:46:26;16.33;;;8.50;;
70026;SDS011;57506;50.092;15.804;2023-02-28T16:48:55;17.60;;;8.95;;
70026;SDS011;57506;50.092;15.804;2023-02-28T16:51:20;18.10;;;8.73;;
70026;SDS011;57506;50.092;15.804;2023-02-28T16:53:46;20.77;;;9.48;;
70026;SDS011;57506;50.092;15.804;2023-02-28T16:56:29;19.33;;;9.53;;
70026;SDS011;57506;50.092;15.804;2023-02-28T16:58:57;23.45;;;8.10;;
70026;SDS011;57506;50.092;15.804;2023-02-28T17:01:25;25.27;;;9.00;;
70026;SDS011;57506;50.092;15.804;2023-02-28T17:03:52;15.10;;;7.97;;
70026;SDS011;57506;50.092;15.804;2023-02-28T17:06:28;19.08;;;9.05;;
70026;SDS011;57506;50.092;15.804;2023-02-28T17:08:55;18.13;;;8.73;;
70026;SDS011;57506;50.092;15.804;2023-02-28T17:11:21;20.45;;;8.98;;
70026;SDS011;57506;50.092;15.804;2023-02-28T17:13:47;16.35;;;8.75;;
70026;SDS011;57506;50.092;15.804;2023-02-28T17:16:25;17.80;;;8.67;;
70026;SDS011;57506;50.092;15.804;2023-02-28T17:18:54;22.13;;;8.07;;
70026;SDS011;57506;50.092;15.804;2023-02-28T17:21:25;18.27;;;8.13;;
70026;SDS011;57506;50.092;15.804;2023-02-28T17:23:51;29.58;;;9.98;;
70026;SDS011;57506;50.092;15.804;2023-02-28T17:26:17;28.67;;;11.40;;
70026;SDS011;57506;50.092;15.804;2023-02-28T17:28:45;34.30;;;12.57;;
70026;SDS011;57506;50.092;15.804;2023-02-28T17:31:11;49.80;;;15.95;;
70026;SDS011;57506;50.092;15.804;2023-02-28T17:33:37;44.63;;;15.60;;
70026;SDS011;57506;50.092;15.804;2023-02-28T17:36:03;28.02;;;10.88;;